Terminal Aerodrome Forecast
Issued by NWS

Home | Current Version | Previous Version | Text Only | Print | Product List | Glossary On
Versions: 1 2 3 4 5 6 7 8 9 10 11 12 13
207
FTPA31 PHFO 261123
TAFHOG
TAF
PHOG 261123Z 2612/2712 04006KT P6SM FEW030 SCT050
     FM262000 04014G22KT P6SM FEW035 SCT050
     FM270500 04009KT P6SM FEW030 FEW050
      AMD LTD TO VIS AND WIND TIL 261600=

USA.gov is the U.S. government's official web portal to all federal, state and local government web resources and services.